createdAt,value
2019-02-06T00:02:19.498Z,15.70
2019-02-06T00:04:52.748Z,16.43
2019-02-06T00:07:26.110Z,20.53
2019-02-06T00:09:59.514Z,21.53
2019-02-06T00:12:32.599Z,18.20
2019-02-06T00:15:06.363Z,18.53
2019-02-06T00:17:39.500Z,15.43
2019-02-06T00:20:12.854Z,20.50
2019-02-06T00:22:47.500Z,23.33
2019-02-06T00:25:22.322Z,22.70
2019-02-06T00:27:55.447Z,19.10
2019-02-06T00:30:28.878Z,19.12
2019-02-06T00:33:01.989Z,20.70
2019-02-06T00:35:35.609Z,20.17
2019-02-06T00:38:08.898Z,18.43
2019-02-06T00:40:42.591Z,19.37
2019-02-06T00:43:15.651Z,25.93
2019-02-06T00:45:49.263Z,19.07
2019-02-06T00:48:22.543Z,46.73
2019-02-06T00:50:56.987Z,16.97
2019-02-06T00:53:31.575Z,16.83
2019-02-06T00:56:10.501Z,24.80
2019-02-06T00:58:44.605Z,16.80
2019-02-06T01:01:18.768Z,17.33
2019-02-06T01:03:52.067Z,14.93
2019-02-06T01:06:26.365Z,20.07
2019-02-06T01:08:59.458Z,19.67
2019-02-06T01:11:32.618Z,21.73
2019-02-06T01:14:05.827Z,18.10
2019-02-06T01:16:38.858Z,19.93
2019-02-06T01:19:12.381Z,18.73
2019-02-06T01:21:45.321Z,18.63
2019-02-06T01:24:19.635Z,16.87
2019-02-06T01:26:52.993Z,15.65
2019-02-06T01:29:26.335Z,15.90
2019-02-06T01:31:59.580Z,18.33
2019-02-06T01:34:33.136Z,18.07
2019-02-06T01:37:07.232Z,20.43
2019-02-06T01:39:40.490Z,15.13
2019-02-06T01:42:14.035Z,18.40
2019-02-06T01:44:48.410Z,17.30
2019-02-06T01:47:22.671Z,20.27
2019-02-06T01:49:55.717Z,15.37
2019-02-06T01:52:29.043Z,17.90
2019-02-06T01:55:02.358Z,15.57
2019-02-06T01:57:38.662Z,17.13
2019-02-06T02:00:20.496Z,15.47
2019-02-06T02:02:57.080Z,14.73
2019-02-06T02:05:30.733Z,15.17
2019-02-06T02:08:03.896Z,15.63
2019-02-06T02:10:38.562Z,16.03
2019-02-06T02:13:11.737Z,13.50
2019-02-06T02:15:46.532Z,19.10
2019-02-06T02:18:19.719Z,18.20
2019-02-06T02:20:54.001Z,15.33
2019-02-06T02:23:29.078Z,15.70
2019-02-06T02:26:02.577Z,15.73
2019-02-06T02:28:35.823Z,19.40
2019-02-06T02:31:10.743Z,16.30
2019-02-06T02:33:43.952Z,13.50
2019-02-06T02:36:17.453Z,15.47
2019-02-06T02:38:50.619Z,19.93
2019-02-06T02:41:23.738Z,17.00
2019-02-06T02:43:57.586Z,16.13
2019-02-06T02:46:33.936Z,27.63
2019-02-06T02:49:13.830Z,32.13
2019-02-06T02:51:46.988Z,27.27
2019-02-06T02:54:20.455Z,25.73
2019-02-06T02:56:53.518Z,37.90
2019-02-06T02:59:26.595Z,31.70
2019-02-06T03:02:10.735Z,29.90
2019-02-06T03:04:48.670Z,30.73
2019-02-06T03:07:23.119Z,22.63
2019-02-06T03:09:56.150Z,22.90
2019-02-06T03:12:29.179Z,22.53
2019-02-06T03:15:02.351Z,22.40
2019-02-06T03:17:35.639Z,22.27
2019-02-06T03:20:09.439Z,22.23
2019-02-06T03:22:42.583Z,22.90
2019-02-06T03:25:15.762Z,22.40
2019-02-06T03:27:55.400Z,21.57
2019-02-06T03:30:28.716Z,21.80
2019-02-06T03:33:01.847Z,22.30
2019-02-06T03:35:40.857Z,23.37
2019-02-06T03:38:15.483Z,23.70
2019-02-06T03:40:48.681Z,21.97
2019-02-06T03:43:26.077Z,22.07
2019-02-06T03:46:00.877Z,27.57
2019-02-06T03:48:35.122Z,24.90
2019-02-06T03:51:08.528Z,32.13
2019-02-06T03:53:41.710Z,23.20
2019-02-06T03:56:16.981Z,31.10
2019-02-06T03:58:50.053Z,20.53
2019-02-06T04:01:23.234Z,26.73
2019-02-06T04:03:56.340Z,20.83
2019-02-06T04:06:30.734Z,21.40
2019-02-06T04:09:03.959Z,22.07
2019-02-06T04:11:37.120Z,21.57
2019-02-06T04:14:10.847Z,28.57
2019-02-06T04:16:47.148Z,23.13
2019-02-06T04:19:20.413Z,19.60
2019-02-06T04:21:53.806Z,19.63
2019-02-06T04:24:28.953Z,17.87
2019-02-06T04:27:03.185Z,21.87
2019-02-06T04:29:36.234Z,18.73
2019-02-06T04:32:09.571Z,20.10
2019-02-06T04:34:42.711Z,17.67
2019-02-06T04:37:16.976Z,23.67
2019-02-06T04:39:50.125Z,22.90
2019-02-06T04:42:23.266Z,27.07
2019-02-06T04:44:56.259Z,23.47
2019-02-06T04:47:31.799Z,21.63
2019-02-06T04:50:04.895Z,33.50
2019-02-06T04:52:38.058Z,36.93
2019-02-06T04:55:11.652Z,32.37
2019-02-06T04:57:46.428Z,32.93
2019-02-06T05:00:27.200Z,38.70
2019-02-06T05:03:02.139Z,28.37
2019-02-06T05:05:35.234Z,18.73
2019-02-06T05:08:08.416Z,21.57
2019-02-06T05:10:41.869Z,20.53
2019-02-06T05:13:14.883Z,18.23
2019-02-06T05:15:49.182Z,21.40
2019-02-06T05:18:22.299Z,33.60
2019-02-06T05:20:55.687Z,59.60
2019-02-06T05:23:28.797Z,88.23
2019-02-06T05:26:02.082Z,46.13
2019-02-06T05:28:35.212Z,33.33
2019-02-06T05:31:08.329Z,26.33
2019-02-06T05:33:41.621Z,23.93
2019-02-06T05:36:16.638Z,21.27
2019-02-06T05:38:49.931Z,23.33
2019-02-06T05:41:23.183Z,27.13
2019-02-06T05:43:56.495Z,29.37
2019-02-06T05:46:29.662Z,30.00
2019-02-06T05:49:02.957Z,26.62
2019-02-06T05:51:36.633Z,24.33
2019-02-06T05:54:09.792Z,22.83
2019-02-06T05:56:42.965Z,23.93
2019-02-06T05:59:16.035Z,22.47
2019-02-06T06:01:49.164Z,28.77
2019-02-06T06:04:22.585Z,26.27
2019-02-06T06:07:02.175Z,49.87
2019-02-06T06:09:35.310Z,51.33
2019-02-06T06:12:19.111Z,55.37
2019-02-06T06:14:52.227Z,33.93
2019-02-06T06:17:25.579Z,32.37
2019-02-06T06:19:58.804Z,27.27
2019-02-06T06:22:32.184Z,27.70
2019-02-06T06:25:05.373Z,32.03
2019-02-06T06:27:38.580Z,30.63
2019-02-06T06:30:13.871Z,36.83
2019-02-06T06:32:47.077Z,31.63
2019-02-06T06:35:20.333Z,35.00
2019-02-06T06:37:59.571Z,30.93
2019-02-06T06:40:28.155Z,32.87
2019-02-06T06:43:01.175Z,33.50
2019-02-06T06:45:34.129Z,27.30
2019-02-06T06:48:07.245Z,24.17
2019-02-06T06:50:40.384Z,21.87
2019-02-06T06:53:13.779Z,22.40
2019-02-06T06:55:48.972Z,24.20
2019-02-06T06:58:22.110Z,21.70
2019-02-06T07:00:55.199Z,23.80
2019-02-06T07:03:28.276Z,24.77
2019-02-06T07:06:01.570Z,28.33
2019-02-06T07:08:34.643Z,25.13
2019-02-06T07:11:08.060Z,27.27
2019-02-06T07:13:41.050Z,25.63
2019-02-06T07:16:16.507Z,29.07
2019-02-06T07:18:50.947Z,25.20
2019-02-06T07:21:23.988Z,29.20
2019-02-06T07:23:57.147Z,28.97
2019-02-06T07:26:30.756Z,26.50
2019-02-06T07:29:03.799Z,28.87
2019-02-06T07:31:36.785Z,25.93
2019-02-06T07:34:10.055Z,24.07
2019-02-06T07:36:44.493Z,27.50
2019-02-06T07:39:17.756Z,28.47
2019-02-06T07:41:51.482Z,28.55
2019-02-06T07:44:24.711Z,28.73
2019-02-06T07:46:59.830Z,28.00
2019-02-06T07:49:33.330Z,25.40
2019-02-06T07:52:06.419Z,29.63
2019-02-06T07:54:39.581Z,26.47
2019-02-06T07:57:12.885Z,24.13
2019-02-06T07:59:45.933Z,24.77
2019-02-06T08:02:19.090Z,26.30
2019-02-06T08:04:52.177Z,22.93
2019-02-06T08:07:26.433Z,25.77
2019-02-06T08:09:59.615Z,22.10
2019-02-06T08:12:32.739Z,25.73
2019-02-06T08:15:05.929Z,25.60
2019-02-06T08:17:39.038Z,27.80
2019-02-06T08:20:14.214Z,26.40
2019-02-06T08:22:47.503Z,23.63
2019-02-06T08:25:21.700Z,21.00
2019-02-06T08:27:54.941Z,24.03
2019-02-06T08:30:30.351Z,73.07
2019-02-06T08:33:03.335Z,107.13
2019-02-06T08:35:36.944Z,29.67
2019-02-06T08:38:10.266Z,27.67
2019-02-06T08:40:43.683Z,23.30
2019-02-06T08:43:16.975Z,21.33
2019-02-06T08:45:51.356Z,22.10
2019-02-06T08:48:24.554Z,23.25
2019-02-06T08:50:57.656Z,20.70
2019-02-06T08:53:31.049Z,26.93
2019-02-06T08:56:06.451Z,25.80
2019-02-06T08:58:39.937Z,26.63
2019-02-06T09:01:13.112Z,25.13
2019-02-06T09:03:46.271Z,23.13
2019-02-06T09:06:19.364Z,23.43
2019-02-06T09:08:59.937Z,21.57
2019-02-06T09:11:28.082Z,20.57
2019-02-06T09:14:01.216Z,19.10
2019-02-06T09:16:35.272Z,18.23
2019-02-06T09:19:08.591Z,19.37
2019-02-06T09:21:41.748Z,20.60
2019-02-06T09:24:15.022Z,20.67
2019-02-06T09:26:48.359Z,21.57
2019-02-06T09:29:21.458Z,23.60
2019-02-06T09:31:54.593Z,21.67
2019-02-06T09:34:28.132Z,26.70
2019-02-06T09:37:05.178Z,21.40
2019-02-06T09:39:37.960Z,27.33
2019-02-06T09:42:11.202Z,26.33
2019-02-06T09:44:44.769Z,28.63
2019-02-06T09:47:17.789Z,26.12
2019-02-06T09:49:51.058Z,22.17
2019-02-06T09:52:28.109Z,22.10
2019-02-06T09:54:58.946Z,20.33
2019-02-06T09:57:32.107Z,22.30
2019-02-06T10:00:05.263Z,25.10
2019-02-06T10:02:38.459Z,29.30
2019-02-06T10:05:12.052Z,28.90
2019-02-06T10:07:46.160Z,25.67
2019-02-06T10:10:21.560Z,25.20
2019-02-06T10:12:54.747Z,24.53
2019-02-06T10:15:31.545Z,23.63
2019-02-06T10:18:06.621Z,22.37
2019-02-06T10:20:51.210Z,25.57
2019-02-06T10:23:24.514Z,21.70
2019-02-06T10:25:57.734Z,25.40
2019-02-06T10:28:30.898Z,30.57
2019-02-06T10:31:04.189Z,28.27
2019-02-06T10:33:37.227Z,26.77
2019-02-06T10:36:10.527Z,29.13
2019-02-06T10:38:43.687Z,23.53
2019-02-06T10:41:16.854Z,24.33
2019-02-06T10:43:50.124Z,25.40
2019-02-06T10:46:25.599Z,24.13
2019-02-06T10:48:58.764Z,21.03
2019-02-06T10:51:31.911Z,23.50
2019-02-06T10:54:05.072Z,22.93
2019-02-06T10:56:41.703Z,25.95
2019-02-06T10:59:14.828Z,26.80
2019-02-06T11:01:48.382Z,23.33
2019-02-06T11:04:21.623Z,25.00
2019-02-06T11:06:57.767Z,25.00
2019-02-06T11:09:31.338Z,28.33
2019-02-06T11:12:04.467Z,23.73
2019-02-06T11:14:38.866Z,30.73
2019-02-06T11:17:13.195Z,26.50
2019-02-06T11:19:46.459Z,31.43
2019-02-06T11:22:19.607Z,33.80
2019-02-06T11:24:55.453Z,34.00
2019-02-06T11:27:50.026Z,26.67
2019-02-06T11:30:28.530Z,29.72
2019-02-06T11:33:01.650Z,42.70
2019-02-06T11:35:36.824Z,33.70
2019-02-06T11:38:10.559Z,22.57
2019-02-06T11:40:45.218Z,53.45
2019-02-06T11:43:18.393Z,33.97
2019-02-06T11:45:57.375Z,38.33
2019-02-06T11:48:30.393Z,33.57
2019-02-06T11:51:04.056Z,35.00
2019-02-06T11:53:37.774Z,35.70
2019-02-06T11:56:10.966Z,26.13
2019-02-06T11:58:45.468Z,21.70
2019-02-06T12:02:37.404Z,24.63
2019-02-06T12:05:12.414Z,31.87
2019-02-06T12:07:47.720Z,27.60
2019-02-06T12:10:24.602Z,21.83
2019-02-06T12:12:57.678Z,23.17
2019-02-06T12:15:31.280Z,27.17
2019-02-06T12:18:05.864Z,26.63
2019-02-06T12:20:39.486Z,23.80
2019-02-06T12:23:13.760Z,40.83
2019-02-06T12:26:15.775Z,39.33
2019-02-06T12:28:48.758Z,39.50
2019-02-06T12:31:22.131Z,33.03
2019-02-06T12:41:00.060Z,28.47
2019-02-06T12:43:36.107Z,27.33
2019-02-06T12:46:15.347Z,24.70
2019-02-06T12:48:52.383Z,26.90
2019-02-06T12:51:52.253Z,29.10
2019-02-06T12:54:24.129Z,30.50
2019-02-06T12:56:56.987Z,41.67
2019-02-06T12:59:30.895Z,23.77
2019-02-06T13:02:04.308Z,27.37
2019-02-06T13:04:37.497Z,30.13
2019-02-06T13:07:27.302Z,25.27
2019-02-06T13:10:00.355Z,29.67
2019-02-06T13:12:33.489Z,28.60
2019-02-06T13:15:09.025Z,25.57
2019-02-06T13:17:42.227Z,25.90
2019-02-06T13:20:20.980Z,25.83
2019-02-06T13:22:54.163Z,27.33
2019-02-06T13:25:28.911Z,27.65
2019-02-06T13:28:01.931Z,26.70
2019-02-06T13:30:37.535Z,25.67
2019-02-06T13:33:14.879Z,31.43
2019-02-06T13:35:48.176Z,27.10
2019-02-06T13:38:23.194Z,32.50
2019-02-06T13:41:11.253Z,28.27
2019-02-06T13:44:44.018Z,24.83
2019-02-06T13:47:44.423Z,26.25
2019-02-06T13:50:48.717Z,22.83
2019-02-06T13:53:33.310Z,19.50
2019-02-06T13:56:32.759Z,29.20
2019-02-06T14:00:19.526Z,26.87
2019-02-06T14:06:34.438Z,31.70
2019-02-06T14:09:29.286Z,24.33
2019-02-06T14:12:02.531Z,28.27
2019-02-06T14:14:36.076Z,30.03
2019-02-06T14:17:39.999Z,24.23
2019-02-06T14:20:28.421Z,27.77
2019-02-06T14:23:27.797Z,26.47
2019-02-06T14:26:38.167Z,22.60
2019-02-06T14:30:14.863Z,20.23
2019-02-06T14:33:25.394Z,24.73
2019-02-06T14:36:37.895Z,26.37
2019-02-06T14:39:46.714Z,30.17
2019-02-06T14:42:45.486Z,24.27
2019-02-06T14:45:43.639Z,26.40
2019-02-06T14:49:00.937Z,21.77
2019-02-06T14:55:57.980Z,19.57
2019-02-06T14:59:25.404Z,19.43
2019-02-06T15:03:10.635Z,16.50
2019-02-06T15:06:40.822Z,20.10
2019-02-06T15:13:48.452Z,18.53
2019-02-06T15:17:10.548Z,18.13
2019-02-06T15:24:22.118Z,18.40
2019-02-06T15:32:07.825Z,24.57
2019-02-06T15:35:31.202Z,17.47
2019-02-06T15:42:39.904Z,24.30
2019-02-06T15:52:47.361Z,18.25
2019-02-06T15:56:13.387Z,18.57
2019-02-06T16:18:27.882Z,19.17
2019-02-06T16:25:31.290Z,11.63
2019-02-06T16:28:54.494Z,11.87
2019-02-06T16:40:08.236Z,13.10
2019-02-06T16:43:18.476Z,12.27
2019-02-06T16:46:16.913Z,15.23
2019-02-06T16:49:42.949Z,13.77
2019-02-06T16:52:48.444Z,17.90
2019-02-06T16:55:55.630Z,15.77
2019-02-06T16:59:41.546Z,18.33
2019-02-06T17:02:48.862Z,11.23
2019-02-06T17:06:11.398Z,12.43
2019-02-06T17:09:44.586Z,14.33
2019-02-06T17:17:20.732Z,7.17
2019-02-06T17:20:52.843Z,15.77
2019-02-06T17:27:42.349Z,12.07
2019-02-06T17:30:55.132Z,22.40
2019-02-06T17:34:17.266Z,14.03
2019-02-06T17:40:37.206Z,17.87
2019-02-06T17:43:44.416Z,10.47
2019-02-06T17:46:47.799Z,14.03
2019-02-06T17:49:53.972Z,9.63
2019-02-06T17:53:25.130Z,12.67
2019-02-06T17:56:22.187Z,11.33
2019-02-06T17:59:12.632Z,12.37
2019-02-06T18:02:49.256Z,12.40
2019-02-06T18:05:25.796Z,10.53
2019-02-06T18:07:59.453Z,13.37
2019-02-06T18:10:38.670Z,14.17
2019-02-06T18:14:03.984Z,12.43
2019-02-06T18:16:55.316Z,13.27
2019-02-06T18:19:28.889Z,9.77
2019-02-06T18:22:01.973Z,14.77
2019-02-06T18:25:32.125Z,12.43
2019-02-06T18:28:34.371Z,13.80
2019-02-06T18:31:07.935Z,64.47
2019-02-06T18:34:28.252Z,9.30
2019-02-06T18:37:04.821Z,12.33
2019-02-06T18:39:38.097Z,7.33
2019-02-06T18:42:37.187Z,15.50
2019-02-06T18:48:58.238Z,15.57
2019-02-06T18:51:34.226Z,12.17
2019-02-06T18:54:14.372Z,13.15
2019-02-06T18:57:13.733Z,9.83
2019-02-06T18:59:46.879Z,9.60
2019-02-06T19:02:20.657Z,15.57
2019-02-06T19:04:59.920Z,12.70
2019-02-06T19:07:46.742Z,14.20
2019-02-06T19:10:23.241Z,12.83
2019-02-06T19:12:58.471Z,13.87
2019-02-06T19:15:36.142Z,14.03
2019-02-06T19:18:12.148Z,14.17
2019-02-06T19:20:47.193Z,11.57
2019-02-06T19:23:22.286Z,18.40
2019-02-06T19:25:55.775Z,14.20
2019-02-06T19:28:33.923Z,12.77
2019-02-06T19:31:07.032Z,10.38
2019-02-06T19:33:44.356Z,10.47
2019-02-06T19:36:21.819Z,14.67
2019-02-06T19:39:01.149Z,16.83
2019-02-06T19:41:34.494Z,10.33
2019-02-06T19:44:08.054Z,13.80
2019-02-06T19:46:43.566Z,15.33
2019-02-06T19:49:22.472Z,12.07
2019-02-06T19:52:14.255Z,13.98
2019-02-06T19:55:04.726Z,13.10
2019-02-06T19:57:44.708Z,12.53
2019-02-06T20:00:31.582Z,17.57
2019-02-06T20:10:52.077Z,14.40
2019-02-06T20:13:26.457Z,12.10
2019-02-06T20:16:02.657Z,14.23
2019-02-06T20:18:35.995Z,18.10
2019-02-06T20:21:09.488Z,18.27
2019-02-06T20:23:47.098Z,15.28
2019-02-06T20:26:21.872Z,27.50
2019-02-06T20:28:54.819Z,12.50
2019-02-06T20:31:30.421Z,14.30
2019-02-06T20:34:06.378Z,10.23
2019-02-06T20:36:49.865Z,12.05
2019-02-06T20:39:23.749Z,10.98
2019-02-06T20:41:57.091Z,10.30
2019-02-06T20:44:31.915Z,11.33
2019-02-06T20:47:05.818Z,16.90
2019-02-06T20:49:39.416Z,13.10
2019-02-06T20:52:15.201Z,14.68
2019-02-06T20:55:24.866Z,15.10
2019-02-06T20:57:57.394Z,16.87
2019-02-06T21:00:55.280Z,13.62
2019-02-06T21:03:24.328Z,15.08
2019-02-06T21:05:59.088Z,12.50
2019-02-06T21:08:45.352Z,11.73
2019-02-06T21:11:18.821Z,14.53
2019-02-06T21:13:52.433Z,20.82
2019-02-06T21:16:31.918Z,16.90
2019-02-06T21:19:05.226Z,12.60
2019-02-06T21:21:38.493Z,15.00
2019-02-06T21:24:17.567Z,12.43
2019-02-06T21:26:53.312Z,16.07
2019-02-06T21:29:26.312Z,14.05
2019-02-06T21:32:08.103Z,18.27
2019-02-06T21:34:41.044Z,12.88
2019-02-06T21:37:14.514Z,12.30
2019-02-06T21:39:47.816Z,11.78
2019-02-06T21:42:22.128Z,12.47
2019-02-06T21:45:13.255Z,12.33
2019-02-06T21:47:34.480Z,12.65
2019-02-06T21:50:08.396Z,16.35
2019-02-06T21:52:41.522Z,12.58
2019-02-06T21:55:16.025Z,13.60
2019-02-06T21:57:49.113Z,12.20
2019-02-06T22:00:28.029Z,16.65
2019-02-06T22:03:01.969Z,32.13
2019-02-06T22:05:38.542Z,16.87
2019-02-06T22:08:12.962Z,11.45
2019-02-06T22:10:46.887Z,11.22
2019-02-06T22:13:20.195Z,12.88
2019-02-06T22:15:53.587Z,12.07
2019-02-06T22:18:26.684Z,16.93
2019-02-06T22:20:59.889Z,12.58
2019-02-06T22:23:36.844Z,10.68
2019-02-06T22:26:10.199Z,15.40
2019-02-06T22:28:45.397Z,14.10
2019-02-06T22:31:18.553Z,17.98
2019-02-06T22:33:52.507Z,15.50
2019-02-06T22:36:26.647Z,15.32
2019-02-06T22:38:59.782Z,10.97
2019-02-06T22:41:32.910Z,14.37
2019-02-06T22:44:06.935Z,14.37
2019-02-06T22:46:41.249Z,22.80
2019-02-06T22:49:16.254Z,14.33
2019-02-06T22:51:49.514Z,13.20
2019-02-06T22:54:22.783Z,13.40
2019-02-06T22:56:56.400Z,14.97
2019-02-06T22:59:29.757Z,16.17
2019-02-06T23:02:04.550Z,16.10
2019-02-06T23:04:37.653Z,12.43
2019-02-06T23:07:11.895Z,16.53
2019-02-06T23:09:46.390Z,14.30
2019-02-06T23:12:21.597Z,15.93
2019-02-06T23:14:56.628Z,10.93
2019-02-06T23:17:30.829Z,13.03
2019-02-06T23:20:04.049Z,22.70
2019-02-06T23:22:37.309Z,13.90
2019-02-06T23:25:11.964Z,17.83
2019-02-06T23:27:46.808Z,15.50
2019-02-06T23:30:19.988Z,13.10
2019-02-06T23:32:53.474Z,26.57
2019-02-06T23:35:26.420Z,16.57
2019-02-06T23:37:59.568Z,17.60
2019-02-06T23:40:32.623Z,16.00
2019-02-06T23:43:06.351Z,20.63
2019-02-06T23:45:39.825Z,17.50
2019-02-06T23:48:13.006Z,16.27
2019-02-06T23:50:46.124Z,16.23
2019-02-06T23:53:19.324Z,18.07
2019-02-06T23:55:54.098Z,15.10
2019-02-06T23:58:27.170Z,15.13
